Time;durP1;ratioP1;P1;durP2;ratioP2;P2;SDS_P1;SDS_P2;PMS_P1;PMS_P2;Temp;Humidity;BMP_temperature;BMP_pressure;BME280_temperature;BME280_humidity;BME280_pressure;Samples;Min_cycle;Max_cycle;Signal;HPM_P1;HPM_P2
2023/03/14 00:01:15;;;;;;;4.62;1.67;;;;;;;12.28;52.81;96998.53;5192484;27;20047;-82
2023/03/14 00:03:43;;;;;;;6.68;1.95;;;;;;;12.30;52.78;97001.84;5192540;27;20063;-82
2023/03/14 00:06:10;;;;;;;5.35;1.60;;;;;;;12.25;52.89;96989.22;5192335;27;20070;-82
2023/03/14 00:08:38;;;;;;;4.95;1.90;;;;;;;12.31;52.89;96993.97;5173704;27;20055;-82
2023/03/14 00:11:10;;;;;;;5.62;1.85;;;;;;;12.32;53.10;96989.63;5192419;27;20084;-82
2023/03/14 00:13:37;;;;;;;3.53;1.52;;;;;;;12.29;53.13;96992.44;5192228;27;20067;-82
2023/03/14 00:16:06;;;;;;;5.65;1.48;;;;;;;12.27;53.09;97002.88;5192450;27;20062;-82
2023/03/14 00:18:33;;;;;;;8.32;2.10;;;;;;;12.41;52.89;97005.37;5192313;27;20416;-82
2023/03/14 00:21:01;;;;;;;7.80;1.77;;;;;;;12.35;52.97;97002.38;5192075;27;20456;-82
2023/03/14 00:23:29;;;;;;;5.70;1.90;;;;;;;12.50;52.60;96992.75;5192452;27;20059;-82
2023/03/14 00:26:07;;;;;;;8.55;1.98;;;;;;;12.40;52.94;96995.12;5192569;27;20125;-81
2023/03/14 00:28:34;;;;;;;6.47;1.90;;;;;;;12.36;53.09;96979.00;5192070;27;20062;-81
2023/03/14 00:31:06;;;;;;;5.75;1.80;;;;;;;12.34;53.05;96978.28;5173457;27;20483;-82
2023/03/14 00:33:34;;;;;;;7.00;2.03;;;;;;;12.12;53.61;96968.53;5173452;27;20125;-82
2023/03/14 00:36:08;;;;;;;4.18;1.80;;;;;;;12.27;53.47;96983.94;5192350;27;20397;-82
2023/03/14 00:38:36;;;;;;;6.20;2.00;;;;;;;12.37;53.15;96979.81;5192393;27;20062;-82
2023/03/14 00:41:17;;;;;;;5.03;1.70;;;;;;;12.29;53.16;96980.31;5192013;27;20492;-82
2023/03/14 00:43:44;;;;;;;5.20;1.50;;;;;;;12.22;53.24;96975.66;5192521;27;20082;-81
2023/03/14 00:46:12;;;;;;;4.57;1.52;;;;;;;12.20;53.48;96959.41;5192492;27;20058;-82
2023/03/14 00:48:39;;;;;;;3.47;1.62;;;;;;;12.21;53.47;96961.91;5191858;27;20054;-81
2023/03/14 00:51:08;;;;;;;5.28;1.62;;;;;;;12.14;53.47;96940.81;5192359;27;20051;-81
2023/03/14 00:53:36;;;;;;;3.92;1.70;;;;;;;12.13;53.13;96931.41;5192337;27;20074;-81
2023/03/14 00:56:11;;;;;;;5.60;1.70;;;;;;;12.28;52.41;96936.47;5191799;27;20058;-82
2023/03/14 00:58:38;;;;;;;6.10;1.77;;;;;;;12.31;52.23;96929.31;5192406;27;20115;-82
2023/03/14 01:01:07;;;;;;;6.75;1.40;;;;;;;12.39;52.07;96908.13;5192427;27;20051;-82
2023/03/14 01:03:34;;;;;;;5.87;1.60;;;;;;;12.27;52.29;96908.94;5192080;27;20186;-82
2023/03/14 01:06:16;;;;;;;4.40;1.60;;;;;;;12.36;51.91;96901.41;5192421;27;20117;-82
2023/03/14 01:08:44;;;;;;;4.32;1.55;;;;;;;12.33;51.94;96891.25;5191922;27;20065;-82
2023/03/14 01:11:22;;;;;;;3.87;1.40;;;;;;;12.28;51.90;96892.50;5191697;27;20047;-82
2023/03/14 01:13:49;;;;;;;4.93;1.50;;;;;;;12.37;51.51;96900.47;5192427;27;20121;-82
2023/03/14 01:16:18;;;;;;;4.70;1.70;;;;;;;12.43;51.27;96887.09;5191860;27;20063;-82
2023/03/14 01:18:46;;;;;;;3.92;1.30;;;;;;;12.28;51.65;96870.03;5192176;27;20069;-81
2023/03/14 01:21:21;;;;;;;5.20;1.65;;;;;;;12.23;51.64;96863.50;5192226;27;20047;-82
2023/03/14 01:23:49;;;;;;;6.57;1.77;;;;;;;12.26;51.46;96861.56;5192007;27;20067;-82
2023/03/14 01:26:21;;;;;;;5.20;1.70;;;;;;;12.15;51.92;96862.31;5192331;27;20338;-82
2023/03/14 01:28:50;;;;;;;5.80;1.40;;;;;;;12.13;51.83;96853.00;5192302;27;20085;-82
2023/03/14 01:31:17;;;;;;;5.75;1.60;;;;;;;12.19;51.59;96851.75;5191789;27;20116;-82
2023/03/14 01:33:45;;;;;;;4.35;1.40;;;;;;;12.17;51.49;96836.34;5192407;27;20402;-82
2023/03/14 01:36:12;;;;;;;5.05;1.48;;;;;;;12.19;50.93;96833.62;5192187;27;20059;-82
2023/03/14 01:38:39;;;;;;;7.35;1.65;;;;;;;12.23;50.45;96829.91;5191767;27;20398;-82
2023/03/14 01:41:09;;;;;;;5.30;1.80;;;;;;;12.29;50.57;96834.66;5191972;27;20122;-81
2023/03/14 01:43:36;;;;;;;3.45;1.30;;;;;;;12.15;51.10;96843.38;5173042;27;20311;-81
2023/03/14 01:46:06;;;;;;;3.95;1.50;;;;;;;12.11;51.26;96823.81;5192262;27;20073;-82
2023/03/14 01:48:39;;;;;;;5.43;1.62;;;;;;;12.11;50.88;96816.88;5192123;27;20054;-82
2023/03/14 01:51:12;;;;;;;6.35;1.80;;;;;;;12.30;50.56;96847.50;5191689;27;20065;-82
2023/03/14 01:53:39;;;;;;;5.15;1.42;;;;;;;12.27;50.22;96821.84;5192295;27;20406;-82
2023/03/14 01:56:08;;;;;;;6.28;1.30;;;;;;;12.30;49.21;96818.22;5173450;27;20116;-82
2023/03/14 01:58:35;;;;;;;2.70;1.20;;;;;;;12.53;48.19;96821.78;5172966;27;20055;-82
2023/03/14 02:01:03;;;;;;;2.45;1.30;;;;;;;12.45;48.37;96801.66;5192080;27;20089;-82
2023/03/14 02:03:31;;;;;;;3.53;1.30;;;;;;;12.48;48.50;96819.53;5192146;27;20079;-82
2023/03/14 02:06:04;;;;;;;7.25;1.52;;;;;;;12.49;48.43;96795.31;5191773;27;20413;-82
2023/03/14 02:08:31;;;;;;;7.62;1.60;;;;;;;12.39;48.78;96787.38;5173467;27;20054;-82
2023/03/14 02:10:58;;;;;;;3.67;1.58;;;;;;;12.34;49.10;96786.06;5192026;27;20047;-82
2023/03/14 02:13:25;;;;;;;5.00;1.60;;;;;;;12.30;49.28;96738.87;5191515;27;20119;-82
2023/03/14 02:15:52;;;;;;;4.78;1.55;;;;;;;12.26;49.98;96783.16;5173361;27;20105;-82
2023/03/14 02:18:19;;;;;;;7.78;1.90;;;;;;;12.11;50.50;96766.94;5192138;27;20050;-82
2023/03/14 02:21:08;;;;;;;5.12;1.85;;;;;;;12.07;50.99;96768.91;5191836;27;20047;-82
2023/03/14 02:23:48;;;;;;;5.32;1.77;;;;;;;11.99;51.21;96778.94;5192056;27;20063;-82
2023/03/14 02:26:24;;;;;;;4.90;1.75;;;;;;;11.92;51.75;96775.16;5173196;27;20077;-82
2023/03/14 02:28:53;;;;;;;4.72;1.70;;;;;;;11.96;51.97;96776.56;5191956;27;20058;-82
2023/03/14 02:31:21;;;;;;;4.10;1.65;;;;;;;11.97;51.88;96767.06;5191908;27;20112;-82
2023/03/14 02:33:48;;;;;;;4.28;1.70;;;;;;;11.97;52.05;96756.72;5173042;27;20477;-82
2023/03/14 02:36:15;;;;;;;5.72;2.05;;;;;;;12.01;51.84;96750.41;5173279;27;20063;-82
2023/03/14 02:39:03;;;;;;;4.97;1.60;;;;;;;11.92;52.35;96746.72;5191862;27;20114;-81
2023/03/14 02:41:30;;;;;;;8.13;1.95;;;;;;;11.97;52.58;96754.13;5191680;27;20059;-82
2023/03/14 02:43:57;;;;;;;5.82;1.83;;;;;;;11.86;52.90;96732.44;5191958;27;20063;-82
2023/03/14 02:46:24;;;;;;;3.78;1.58;;;;;;;11.75;53.27;96724.56;5191994;27;20120;-82
2023/03/14 02:48:56;;;;;;;5.20;2.00;;;;;;;11.93;52.61;96725.09;5191339;27;20455;-82
2023/03/14 02:51:23;;;;;;;5.70;1.85;;;;;;;11.94;52.96;96733.69;5191860;27;20046;-82
2023/03/14 02:53:50;;;;;;;4.55;1.77;;;;;;;11.85;53.15;96725.63;5173116;27;20132;-82
2023/03/14 02:56:17;;;;;;;6.65;2.08;;;;;;;11.94;53.11;96736.25;5194169;27;20063;-82
2023/03/14 02:58:44;;;;;;;5.20;1.80;;;;;;;11.92;53.00;96735.56;5194177;27;20054;-82
2023/03/14 03:01:11;;;;;;;6.70;1.90;;;;;;;11.91;53.16;96739.91;5193770;27;20395;-82
2023/03/14 03:03:38;;;;;;;6.65;2.00;;;;;;;12.01;52.84;96727.97;5194256;27;20066;-82
2023/03/14 03:06:05;;;;;;;6.55;1.90;;;;;;;11.74;53.23;96746.16;5194234;27;20063;-82
2023/03/14 03:08:33;;;;;;;6.70;1.65;;;;;;;11.83;53.39;96744.75;5193651;27;20058;-81
2023/03/14 03:11:00;;;;;;;5.45;1.77;;;;;;;11.83;53.43;96748.16;5193919;27;20100;-81
2023/03/14 03:13:26;;;;;;;6.47;1.87;;;;;;;11.75;53.61;96740.06;5194045;27;20059;-81
2023/03/14 03:15:53;;;;;;;6.12;1.65;;;;;;;11.76;53.78;96740.91;5193665;27;20058;-81
2023/03/14 03:18:20;;;;;;;5.62;1.73;;;;;;;11.71;53.89;96732.66;5194184;27;20058;-81
2023/03/14 03:20:47;;;;;;;5.43;1.60;;;;;;;11.62;54.35;96726.34;5194297;27;20058;-82
2023/03/14 03:23:14;;;;;;;5.28;1.50;;;;;;;11.57;54.26;96729.22;5193494;27;20074;-81
2023/03/14 03:25:41;;;;;;;5.30;1.62;;;;;;;11.51;54.29;96728.81;5193976;27;20067;-82
2023/03/14 03:28:08;;;;;;;5.43;1.70;;;;;;;11.60;54.20;96723.03;5193887;27;20109;-82
2023/03/14 03:30:41;;;;;;;9.80;1.90;;;;;;;11.56;54.02;96717.22;5193892;27;20104;-81
2023/03/14 03:33:09;;;;;;;6.07;1.70;;;;;;;11.53;53.98;96712.28;5193889;27;20102;-81
2023/03/14 03:35:48;;;;;;;3.97;1.65;;;;;;;11.48;53.78;96703.19;5193900;27;20322;-82
2023/03/14 03:38:16;;;;;;;3.87;1.65;;;;;;;11.41;54.14;96699.38;5193971;27;20055;-81
2023/03/14 03:40:43;;;;;;;5.35;1.80;;;;;;;11.53;53.88;96695.97;5193940;27;20096;-82
2023/03/14 03:43:10;;;;;;;7.20;2.08;;;;;;;11.64;53.43;96672.81;5193489;27;20071;-81
2023/03/14 03:45:36;;;;;;;;;;;;;;;11.55;54.08;96694.09;5194371;27;20059;-82
2023/03/14 03:48:04;;;;;;;4.72;1.50;;;;;;;11.50;54.30;96688.44;5175157;27;20320;-81
2023/03/14 03:50:31;;;;;;;4.90;1.50;;;;;;;11.50;54.13;96691.84;5193661;27;20055;-82
2023/03/14 03:52:58;;;;;;;6.62;2.25;;;;;;;11.39;54.61;96694.31;5193944;27;20062;-81
2023/03/14 03:55:25;;;;;;;;;;;;;;;11.43;54.75;96692.34;5194109;27;20059;-82
2023/03/14 03:57:52;;;;;;;7.97;1.87;;;;;;;11.51;54.36;96687.50;5193515;27;20031;-81
2023/03/14 04:00:19;;;;;;;;;;;;;;;11.66;54.02;96701.09;5194313;27;20603;-82
2023/03/14 04:02:46;;;;;;;6.87;1.75;;;;;;;11.57;54.28;96689.62;5193786;27;19975;-82
2023/03/14 04:05:13;;;;;;;4.10;1.65;;;;;;;11.58;54.48;96675.78;5193210;27;20055;-81
2023/03/14 04:07:40;;;;;;;;;;;;;;;11.70;54.20;96674.16;5192453;27;20104;-82
2023/03/14 04:10:07;;;;;;;3.60;1.30;;;;;;;11.61;54.36;96682.53;5192557;27;20012;-82
2023/03/14 04:12:34;;;;;;;4.75;1.50;;;;;;;11.75;54.19;96674.66;5191713;27;20058;-81
2023/03/14 04:15:01;;;;;;;3.67;1.40;;;;;;;11.66;54.68;96668.34;5192582;27;20527;-81
2023/03/14 04:17:28;;;;;;;6.35;1.48;;;;;;;11.77;54.36;96665.84;5192430;27;20062;-81
2023/03/14 04:19:55;;;;;;;4.12;1.50;;;;;;;11.81;54.56;96675.09;5192199;27;20050;-82
2023/03/14 04:22:22;;;;;;;5.32;1.90;;;;;;;11.93;54.61;96670.81;5192419;27;20066;-81
2023/03/14 04:24:49;;;;;;;7.85;1.42;;;;;;;11.99;54.64;96687.66;5192490;27;20059;-82
2023/03/14 04:27:16;;;;;;;3.28;1.52;;;;;;;12.07;54.50;96667.25;5192208;27;20070;-82
2023/03/14 04:29:43;;;;;;;4.62;1.52;;;;;;;11.97;55.13;96676.59;5192397;27;20061;-82
2023/03/14 04:32:10;;;;;;;6.93;1.55;;;;;;;12.07;55.07;96686.19;5192001;27;20402;-82
2023/03/14 04:34:37;;;;;;;6.25;1.60;;;;;;;11.97;55.25;96684.34;5173878;27;20059;-81
2023/03/14 04:37:04;;;;;;;5.30;1.65;;;;;;;12.10;54.99;96672.22;5192355;27;20403;-82
2023/03/14 04:39:31;;;;;;;4.22;1.50;;;;;;;12.09;55.19;96680.91;5191856;27;20058;-82
2023/03/14 04:41:58;;;;;;;4.87;1.37;;;;;;;12.10;55.33;96680.78;5192423;27;20066;-82
2023/03/14 04:44:25;;;;;;;3.80;1.30;;;;;;;12.14;55.17;96674.47;5173731;27;20062;-81
2023/03/14 04:46:52;;;;;;;5.65;1.70;;;;;;;12.05;55.63;96682.88;5192058;27;20055;-81
2023/03/14 04:49:19;;;;;;;6.32;1.50;;;;;;;12.32;54.99;96694.78;5192164;27;20043;-81
2023/03/14 04:51:45;;;;;;;2.75;1.50;;;;;;;12.32;54.96;96711.13;5192234;27;20059;-81
2023/03/14 04:54:12;;;;;;;6.40;1.60;;;;;;;12.32;55.15;96705.12;5191939;27;20394;-81
2023/03/14 04:56:39;;;;;;;3.03;1.12;;;;;;;12.51;54.76;96715.00;5192192;27;20051;-82
2023/03/14 04:59:08;;;;;;;4.05;1.45;;;;;;;12.33;55.31;96707.59;5192095;27;20117;-81
2023/03/14 05:01:35;;;;;;;6.47;1.52;;;;;;;12.52;55.05;96719.22;5191994;27;20110;-81
2023/03/14 05:04:02;;;;;;;3.40;1.40;;;;;;;12.38;55.22;96705.53;5192408;27;20052;-81
2023/03/14 05:06:29;;;;;;;4.53;1.60;;;;;;;12.50;54.96;96715.94;5192402;27;20051;-81
2023/03/14 05:08:55;;;;;;;;;;;;;;;12.51;55.18;96727.94;5192114;27;20062;-81
2023/03/14 05:11:22;;;;;;;4.37;1.40;;;;;;;12.41;55.46;96722.59;5192084;27;20012;-81
2023/03/14 05:13:49;;;;;;;7.12;1.40;;;;;;;12.31;55.99;96719.00;5173900;27;20070;-81
2023/03/14 05:16:16;;;;;;;5.50;1.42;;;;;;;12.41;55.96;96738.09;5191868;27;20054;-81
2023/03/14 05:18:43;;;;;;;3.95;1.20;;;;;;;12.35;56.28;96749.72;5192010;27;20102;-81
2023/03/14 05:21:10;;;;;;;;;;;;;;;12.41;56.27;96758.81;5192296;27;20180;-81
2023/03/14 05:23:37;;;;;;;4.15;1.37;;;;;;;12.32;56.41;96755.09;5192372;27;20272;-81
2023/03/14 05:26:04;;;;;;;4.35;1.25;;;;;;;12.23;56.63;96766.09;5192309;27;20089;-81
2023/03/14 05:28:31;;;;;;;3.58;1.45;;;;;;;12.29;56.94;96770.84;5191908;27;20051;-81
2023/03/14 05:30:57;;;;;;;3.17;1.30;;;;;;;12.26;57.19;96776.22;5192399;27;20063;-81
2023/03/14 05:33:24;;;;;;;4.62;1.40;;;;;;;12.23;57.58;96780.75;5192145;27;20063;-81
2023/03/14 05:35:51;;;;;;;5.70;1.65;;;;;;;12.36;57.32;96769.47;5191780;27;20105;-81
2023/03/14 05:38:18;;;;;;;4.12;1.50;;;;;;;12.44;57.23;96782.72;5192158;27;20051;-81
2023/03/14 05:40:46;;;;;;;6.60;1.52;;;;;;;12.49;57.35;96784.13;5192351;27;20062;-81
2023/03/14 05:43:13;;;;;;;3.65;1.50;;;;;;;12.40;57.46;96767.50;5191814;27;20055;-81
2023/03/14 05:45:41;;;;;;;4.18;1.30;;;;;;;12.40;57.73;96776.09;5192287;27;20326;-82
2023/03/14 05:48:08;;;;;;;4.45;1.23;;;;;;;12.32;57.93;96759.44;5173406;27;20070;-81
2023/03/14 05:50:35;;;;;;;4.00;1.50;;;;;;;12.50;57.86;96771.09;5191885;27;20113;-81
2023/03/14 05:53:02;;;;;;;4.85;1.40;;;;;;;12.65;57.42;96764.00;5192107;27;20117;-81
2023/03/14 05:55:29;;;;;;;3.85;1.55;;;;;;;12.78;56.77;96761.37;5192227;27;20065;-82
2023/03/14 05:57:56;;;;;;;4.25;1.52;;;;;;;12.85;56.58;96760.78;5191566;27;20109;-81
2023/03/14 06:00:23;;;;;;;4.85;1.75;;;;;;;12.94;56.34;96762.72;5192240;27;20059;-82
2023/03/14 06:02:50;;;;;;;4.32;1.37;;;;;;;12.88;56.67;96773.53;5192102;27;20515;-82
2023/03/14 06:05:16;;;;;;;5.10;1.70;;;;;;;12.82;57.14;96768.78;5191916;27;20054;-82
2023/03/14 06:07:43;;;;;;;6.18;1.45;;;;;;;12.87;57.06;96771.06;5192039;27;20043;-81
2023/03/14 06:10:11;;;;;;;4.25;1.33;;;;;;;12.98;56.98;96774.53;5191883;27;20070;-82
2023/03/14 06:12:38;;;;;;;3.75;1.10;;;;;;;12.92;57.32;96761.19;5191734;27;20414;-82
2023/03/14 06:15:05;;;;;;;4.78;1.33;;;;;;;12.94;57.15;96734.25;5192189;27;20118;-82
2023/03/14 06:17:32;;;;;;;2.83;1.33;;;;;;;12.81;57.77;96754.19;5191526;27;20187;-81
2023/03/14 06:19:59;;;;;;;5.07;1.65;;;;;;;12.94;57.36;96756.72;5192199;27;20067;-82
2023/03/14 06:22:26;;;;;;;4.43;1.42;;;;;;;13.10;56.98;96761.63;5192076;27;20448;-82
2023/03/14 06:24:53;;;;;;;3.50;1.40;;;;;;;13.21;56.67;96752.16;5191678;27;20112;-82
2023/03/14 06:27:20;;;;;;;4.75;1.77;;;;;;;13.20;56.95;96762.63;5192115;27;20051;-82
2023/03/14 06:29:47;;;;;;;4.12;1.48;;;;;;;13.18;57.47;96743.75;5191552;27;20086;-82
2023/03/14 06:32:14;;;;;;;5.15;1.30;;;;;;;13.45;56.85;96754.69;5191625;27;20059;-82
2023/03/14 06:34:41;;;;;;;5.90;1.37;;;;;;;13.45;57.37;96753.87;5192094;27;20054;-82
2023/03/14 06:37:08;;;;;;;3.72;1.58;;;;;;;13.66;56.87;96756.63;5191846;27;20126;-82
2023/03/14 06:39:34;;;;;;;5.80;1.27;;;;;;;13.81;56.87;96745.06;5191540;27;20063;-82
2023/03/14 06:42:01;;;;;;;3.10;1.30;;;;;;;13.76;57.08;96742.00;5192040;27;20096;-82
2023/03/14 06:44:28;;;;;;;7.68;1.35;;;;;;;13.98;56.73;96746.37;5191906;27;20047;-83
2023/03/14 06:46:55;;;;;;;3.85;1.27;;;;;;;14.16;56.42;96750.16;5172881;27;20057;-83
2023/03/14 06:49:22;;;;;;;4.00;1.42;;;;;;;14.36;55.64;96744.25;5191456;27;20083;-84
2023/03/14 06:51:49;;;;;;;6.70;1.87;;;;;;;14.35;55.98;96744.34;5191887;27;20063;-84
2023/03/14 06:54:16;;;;;;;7.07;1.70;;;;;;;14.50;55.46;96735.38;5191551;27;20093;-84
2023/03/14 06:56:43;;;;;;;3.92;1.48;;;;;;;14.39;55.44;96738.78;5191864;27;20047;-83
2023/03/14 06:59:10;;;;;;;4.28;1.33;;;;;;;14.42;55.54;96732.53;5191726;27;20393;-83
2023/03/14 07:01:37;;;;;;;3.37;1.30;;;;;;;14.39;55.49;96731.00;5191509;27;20059;-83
2023/03/14 07:04:04;;;;;;;4.90;1.25;;;;;;;14.39;55.44;96725.00;5173260;27;20123;-83
2023/03/14 07:06:31;;;;;;;3.55;1.17;;;;;;;14.43;55.07;96726.41;5191641;27;20051;-83
2023/03/14 07:08:58;;;;;;;3.55;1.20;;;;;;;14.47;55.34;96759.00;5191680;27;20067;-83
2023/03/14 07:11:26;;;;;;;6.95;1.55;;;;;;;14.41;55.84;96749.88;5191579;27;20071;-83
2023/03/14 07:13:53;;;;;;;6.37;1.65;;;;;;;14.64;54.73;96748.09;5191557;27;20451;-83
2023/03/14 07:16:20;;;;;;;2.72;1.15;;;;;;;14.79;54.25;96763.41;5191629;27;20146;-84
2023/03/14 07:18:49;;;;;;;4.68;1.30;;;;;;;14.82;54.11;96778.72;5191533;27;20134;-84
2023/03/14 07:21:16;;;;;;;3.47;1.35;;;;;;;15.02;53.38;96770.16;5191343;27;20070;-85
2023/03/14 07:23:42;;;;;;;4.35;1.30;;;;;;;15.05;53.00;96757.75;5191885;27;20112;-82
2023/03/14 07:26:09;;;;;;;4.07;1.65;;;;;;;15.10;53.10;96753.94;5192167;27;20047;-85
2023/03/14 07:28:36;;;;;;;3.62;1.17;;;;;;;15.10;53.46;96744.41;5173578;27;20063;-80
2023/03/14 07:31:03;;;;;;;5.57;1.48;;;;;;;14.94;53.63;96734.41;5192132;27;20070;-83
2023/03/14 07:33:30;;;;;;;4.22;1.45;;;;;;;15.00;53.73;96730.50;5191980;27;20065;-82
2023/03/14 07:36:00;;;;;;;5.15;1.45;;;;;;;15.14;53.44;96745.78;5192081;27;20061;-83
2023/03/14 07:38:27;;;;;;;4.80;1.27;;;;;;;15.27;52.95;96732.59;5191911;27;20681;-83
2023/03/14 07:41:01;;;;;;;5.95;1.62;;;;;;;15.17;53.16;96742.94;5192452;27;20116;-83
2023/03/14 07:43:28;;;;;;;5.40;1.83;;;;;;;15.23;53.16;96745.03;5176283;27;20116;-83
2023/03/14 07:45:55;;;;;;;4.75;1.35;;;;;;;15.52;52.27;96744.38;5176172;27;20140;-83
2023/03/14 07:48:26;;;;;;;2.90;1.17;;;;;;;16.18;50.58;96731.87;5193370;27;20074;-83
2023/03/14 07:51:03;;;;;;;2.92;1.23;;;;;;;16.05;50.12;96736.47;5176445;27;20142;-83
2023/03/14 07:56:46;;;;;;;4.55;1.40;;;;;;;16.56;48.84;96751.16;5215364;27;20490;-84
2023/03/14 07:59:13;;;;;;;6.03;1.40;;;;;;;16.84;48.45;96747.81;5215591;27;20461;-82
2023/03/14 08:01:40;;;;;;;3.95;1.27;;;;;;;17.40;47.06;96741.88;5212128;27;20066;-82
2023/03/14 08:04:07;;;;;;;2.67;1.10;;;;;;;17.86;45.78;96751.59;5213782;27;20101;-82
2023/03/14 08:06:35;;;;;;;4.43;1.30;;;;;;;17.80;45.73;96752.13;5214413;27;20023;-82
2023/03/14 08:09:03;;;;;;;4.40;1.17;;;;;;;17.70;45.32;96719.22;5213729;27;20063;-82
2023/03/14 08:11:30;;;;;;;5.43;1.33;;;;;;;17.62;45.00;96733.75;5212881;27;20511;-84
2023/03/14 08:13:57;;;;;;;3.15;1.00;;;;;;;17.42;45.41;96736.53;5213778;27;20051;-85
2023/03/14 08:16:24;;;;;;;3.28;1.15;;;;;;;17.59;44.51;96722.78;5214126;27;20047;-84
2023/03/14 08:18:53;;;;;;;3.10;1.20;;;;;;;17.43;44.87;96717.31;5213217;27;20077;-85
2023/03/14 08:21:20;;;;;;;7.87;1.60;;;;;;;17.37;44.44;96715.28;5214692;27;20067;-85
2023/03/14 08:23:47;;;;;;;4.82;1.37;;;;;;;17.32;44.69;96710.47;5214099;27;20051;-84
2023/03/14 08:26:14;;;;;;;2.95;1.15;;;;;;;17.30;44.46;96702.78;5213523;27;20047;-84
2023/03/14 08:28:41;;;;;;;3.58;1.27;;;;;;;17.28;44.10;96703.91;5213129;27;20067;-84
2023/03/14 08:31:07;;;;;;;4.55;1.27;;;;;;;17.29;44.05;96713.38;5213540;27;20124;-83
2023/03/14 08:33:35;;;;;;;4.45;1.33;;;;;;;17.50;43.46;96716.63;5212392;27;20054;-83
2023/03/14 08:36:02;;;;;;;3.20;1.23;;;;;;;17.46;43.61;96689.19;5213506;27;20042;-84
2023/03/14 08:38:29;;;;;;;4.18;1.55;;;;;;;17.55;43.56;96696.19;5213788;27;20496;-82
2023/03/14 08:40:58;;;;;;;4.70;1.23;;;;;;;17.78;42.44;96688.03;5213466;27;20107;-84
2023/03/14 08:43:25;;;;;;;5.93;1.50;;;;;;;17.73;42.60;96666.75;5201292;27;20131;-84
2023/03/14 08:45:52;;;;;;;4.00;1.58;;;;;;;17.75;42.23;96694.34;5191682;27;20057;-83
2023/03/14 08:48:20;;;;;;;5.30;1.50;;;;;;;17.99;42.25;96696.47;5192082;27;20066;-84
2023/03/14 08:50:47;;;;;;;4.70;1.20;;;;;;;18.13;42.21;96695.97;5192306;27;20063;-84
2023/03/14 08:53:13;;;;;;;6.35;1.37;;;;;;;17.82;41.68;96689.38;5191483;27;20181;-83
2023/03/14 08:55:40;;;;;;;5.40;1.50;;;;;;;17.63;42.31;96674.56;5192198;27;20104;-84
2023/03/14 08:58:07;;;;;;;6.30;1.40;;;;;;;17.95;42.18;96673.38;5191784;27;20133;-83
2023/03/14 09:00:34;;;;;;;4.32;1.23;;;;;;;17.70;42.69;96680.09;5192054;27;20112;-83
2023/03/14 09:03:01;;;;;;;5.05;1.23;;;;;;;17.67;42.43;96675.97;5191767;27;20089;-83
2023/03/14 09:05:28;;;;;;;4.78;1.35;;;;;;;17.85;41.90;96670.81;5192860;27;20460;-84
2023/03/14 09:07:55;;;;;;;4.75;1.40;;;;;;;17.87;41.64;96674.12;5191781;27;20063;-83
2023/03/14 09:10:22;;;;;;;5.25;1.30;;;;;;;17.90;41.67;96679.06;5192206;27;20054;-83
2023/03/14 09:12:49;;;;;;;3.78;1.40;;;;;;;18.01;41.45;96650.16;5192014;27;20054;-83
2023/03/14 09:15:16;;;;;;;5.57;1.30;;;;;;;18.50;40.66;96658.50;5196871;27;20046;-83
2023/03/14 09:17:44;;;;;;;4.60;1.48;;;;;;;18.49;40.40;96655.06;5192266;27;20126;-83
2023/03/14 09:20:11;;;;;;;3.85;1.10;;;;;;;18.25;40.99;96646.16;5193901;27;20055;-83
2023/03/14 09:22:38;;;;;;;3.83;1.35;;;;;;;18.41;40.78;96656.78;5193037;27;20393;-83
2023/03/14 09:25:06;;;;;;;3.55;1.40;;;;;;;18.30;40.77;96670.87;5193073;27;20046;-83
2023/03/14 09:27:33;;;;;;;6.30;1.30;;;;;;;18.37;41.20;96652.81;5194229;27;20067;-84
2023/03/14 09:30:00;;;;;;;5.37;1.50;;;;;;;18.59;41.05;96662.81;5195767;27;20192;-83
2023/03/14 09:32:31;;;;;;;3.90;1.45;;;;;;;18.78;40.52;96657.50;5179153;27;20062;-82
2023/03/14 09:34:58;;;;;;;4.30;1.67;;;;;;;18.60;40.37;96658.41;5196799;27;20057;-83
2023/03/14 09:37:25;;;;;;;5.22;1.65;;;;;;;18.81;40.27;96629.41;5196294;27;20616;-83
2023/03/14 09:47:30;;;;;;;4.62;1.17;;;;;;;19.46;39.09;96638.56;5192302;27;20081;-84
2023/03/14 09:50:03;;;;;;;2.53;1.25;;;;;;;18.79;39.29;96621.72;5194055;27;20073;-83
2023/03/14 09:52:34;;;;;;;3.25;1.20;;;;;;;18.74;39.92;96621.38;5195409;27;20076;-83
2023/03/14 09:55:12;;;;;;;2.95;1.20;;;;;;;18.54;40.27;96636.34;5286044;27;20064;-83
2023/03/14 09:57:41;;;;;;;5.72;1.42;;;;;;;18.15;40.59;96634.00;5214220;27;20123;-83
2023/03/14 10:00:16;;;;;;;5.53;1.30;;;;;;;18.26;40.40;96634.75;5285621;27;20118;-83
2023/03/14 10:02:53;;;;;;;4.30;1.30;;;;;;;18.30;41.16;96641.34;5213208;27;20076;-83
2023/03/14 10:05:22;;;;;;;7.07;1.50;;;;;;;18.27;40.75;96629.38;5212861;27;20051;-83
2023/03/14 10:07:49;;;;;;;3.58;1.20;;;;;;;18.32;40.66;96629.78;5212873;27;20047;-83
2023/03/14 10:10:22;;;;;;;3.33;1.45;;;;;;;18.32;40.72;96629.78;5194358;27;20177;-83
2023/03/14 10:12:57;;;;;;;2.65;1.10;;;;;;;18.26;40.35;96635.56;5185742;27;20112;-83
2023/03/14 10:15:31;;;;;;;2.20;1.23;;;;;;;18.23;40.98;96632.44;5194935;27;20087;-83
2023/03/14 10:18:00;;;;;;;4.47;1.30;;;;;;;18.46;40.85;96615.38;5196463;27;20026;-84
2023/03/14 10:20:36;;;;;;;5.75;1.30;;;;;;;18.98;39.85;96628.59;5196453;27;20398;-85
2023/03/14 10:23:20;;;;;;;5.40;1.90;;;;;;;19.30;38.51;96609.69;5196658;27;20562;-84
2023/03/14 10:26:06;;;;;;;4.93;1.30;;;;;;;19.32;38.41;96619.00;5195111;27;20054;-84
2023/03/14 10:28:39;;;;;;;5.65;1.45;;;;;;;19.58;38.00;96621.62;5194675;27;20104;-84
2023/03/14 10:31:06;;;;;;;4.43;1.30;;;;;;;19.91;38.00;96634.88;5193942;27;20059;-84
2023/03/14 10:33:36;;;;;;;5.10;1.40;;;;;;;19.74;37.33;96636.59;5203813;27;20039;-84
2023/03/14 10:36:18;;;;;;;3.30;1.10;;;;;;;19.30;37.53;96622.75;5216712;27;20051;-84
2023/03/14 10:38:47;;;;;;;3.10;1.15;;;;;;;19.61;37.46;96620.50;5213988;27;20126;-84
2023/03/14 10:41:24;;;;;;;4.43;1.50;;;;;;;19.28;36.90;96624.72;5216501;27;20066;-84
2023/03/14 10:43:54;;;;;;;5.50;1.33;;;;;;;19.21;37.66;96614.03;5195433;27;20063;-83
2023/03/14 10:46:56;;;;;;;3.28;1.25;;;;;;;19.27;37.59;96618.66;5191890;27;20062;-83
2023/03/14 10:49:35;;;;;;;4.20;1.40;;;;;;;19.16;37.79;96608.47;5191900;27;20043;-83
2023/03/14 10:52:14;;;;;;;3.28;1.30;;;;;;;19.26;37.60;96614.41;5191610;27;20066;-84
2023/03/14 10:54:41;;;;;;;5.87;1.55;;;;;;;19.46;36.65;96614.16;5171108;27;20063;-82
2023/03/14 10:57:14;;;;;;;4.12;1.60;;;;;;;19.37;36.93;96619.38;5170699;27;20059;-83
2023/03/14 10:59:42;;;;;;;4.65;1.27;;;;;;;19.27;36.56;96615.22;5170592;27;20084;-82
2023/03/14 11:02:37;;;;;;;3.92;1.25;;;;;;;19.63;36.24;96611.50;5170662;27;20156;-83
2023/03/14 11:05:25;;;;;;;3.83;1.40;;;;;;;19.89;35.43;96613.28;5170367;27;20398;-83
2023/03/14 11:07:57;;;;;;;4.22;1.42;;;;;;;19.56;34.97;96601.81;5170481;27;20059;-82
2023/03/14 11:10:37;;;;;;;7.12;1.55;;;;;;;19.84;34.78;96600.66;5170665;27;20043;-83
2023/03/14 11:13:28;;;;;;;3.03;1.20;;;;;;;20.24;34.70;96593.87;5186102;27;20063;-83
2023/03/14 11:16:22;;;;;;;3.05;1.40;;;;;;;20.53;34.42;96598.72;5168786;27;20437;-84
2023/03/14 11:19:17;;;;;;;6.60;1.50;;;;;;;20.51;33.73;96598.03;5171513;27;20388;-76
2023/03/14 11:21:53;;;;;;;3.12;1.20;;;;;;;20.24;35.03;96599.13;5171580;27;20047;-76
2023/03/14 11:24:23;;;;;;;3.75;1.30;;;;;;;20.43;34.05;96595.44;5171461;27;20067;-76
2023/03/14 11:26:50;;;;;;;5.95;1.48;;;;;;;20.33;34.76;96592.09;5171024;27;20679;-76
2023/03/14 11:29:49;;;;;;;5.53;1.60;;;;;;;20.27;33.92;96574.41;5170886;27;20077;-77
2023/03/14 11:32:28;;;;;;;3.90;1.48;;;;;;;20.16;33.35;96586.81;5179051;27;20058;-77
2023/03/14 11:34:55;;;;;;;4.45;1.40;;;;;;;20.36;33.41;96587.34;5171197;27;20070;-77
2023/03/14 11:37:26;;;;;;;4.62;1.30;;;;;;;20.36;33.76;96574.25;5170062;27;20071;-76
2023/03/14 11:40:01;;;;;;;3.62;1.35;;;;;;;20.05;33.76;96571.41;5169413;27;20420;-77
2023/03/14 11:42:29;;;;;;;4.07;1.20;;;;;;;20.04;33.97;96564.56;5171036;27;20093;-77
2023/03/14 11:44:57;;;;;;;2.55;1.20;;;;;;;19.92;34.03;96557.97;5169840;27;20406;-78
2023/03/14 11:47:34;;;;;;;4.22;1.48;;;;;;;20.00;34.43;96562.44;5169707;27;20118;-77
2023/03/14 11:50:08;;;;;;;4.10;1.55;;;;;;;20.03;34.26;96551.62;5169959;27;20058;-76
2023/03/14 11:52:41;;;;;;;3.12;1.37;;;;;;;20.08;34.08;96544.09;5171267;27;20105;-76
2023/03/14 11:55:17;;;;;;;3.95;1.30;;;;;;;20.01;34.05;96549.16;5171036;27;20063;-76